Time;durP1;ratioP1;P1;durP2;ratioP2;P2;SDS_P1;SDS_P2;PMS_P1;PMS_P2;Temp;Humidity;BMP_temperature;BMP_pressure;BME280_temperature;BME280_humidity;BME280_pressure;Samples;Min_cycle;Max_cycle;Signal;HPM_P1;HPM_P2
2022/02/16 00:00:06;;;;;;;;;;;;;;;18.07;52.18;100345.19;2028952;29;19926;-41
2022/02/16 00:01:07;;;;;;;;;;;;;;;18.06;52.16;100343.47;2034011;29;19922;-41
2022/02/16 00:02:08;;;;;;;;;;;;;;;18.06;52.17;100339.88;2027626;29;20278;-40
2022/02/16 00:03:09;;;;;;;;;;;;;;;18.07;52.18;100344.31;2028783;29;19969;-41
2022/02/16 00:04:09;;;;;;;;;;;;;;;18.07;52.39;100338.88;2031601;29;19915;-41
2022/02/16 00:05:13;;;;;;;;;;;;;;;18.05;52.20;100341.72;2027838;29;20250;-42
2022/02/16 00:06:13;;;;;;;;;;;;;;;18.04;52.45;100340.00;2020264;29;20346;-41
2022/02/16 00:07:14;;;;;;;;;;;;;;;18.04;52.44;100341.88;2020307;29;19922;-41
2022/02/16 00:08:14;;;;;;;;;;;;;;;18.04;52.49;100344.59;2028243;29;19939;-41
2022/02/16 00:09:14;;;;;;;;;;;;;;;18.04;52.27;100344.59;2029234;29;19966;-41
2022/02/16 00:10:15;;;;;;;;;;;;;;;18.03;52.28;100332.84;2025799;29;19931;-41
2022/02/16 00:11:16;;;;;;;;;;;;;;;18.03;52.58;100337.41;2028707;29;19990;-41
2022/02/16 00:12:16;;;;;;;;;;;;;;;18.03;52.58;100337.41;2024650;29;20202;-41
2022/02/16 00:13:17;;;;;;;;;;;;;;;18.02;52.28;100336.53;2028754;29;20848;-41
2022/02/16 00:14:17;;;;;;;;;;;;;;;18.00;52.50;100339.41;2028286;29;20639;-41
2022/02/16 00:15:18;;;;;;;;;;;;;;;18.02;52.58;100341.16;2027871;29;20032;-41
2022/02/16 00:16:18;;;;;;;;;;;;;;;18.00;52.30;100336.66;2026339;29;20710;-41
2022/02/16 00:17:18;;;;;;;;;;;;;;;18.00;52.48;100336.66;2029222;29;19923;-41
2022/02/16 00:18:19;;;;;;;;;;;;;;;18.00;52.42;100333.94;2027717;29;19974;-42
2022/02/16 00:19:19;;;;;;;;;;;;;;;18.00;52.43;100338.53;2022985;29;19951;-41
2022/02/16 00:20:20;;;;;;;;;;;;;;;18.00;52.37;100327.63;2026798;29;19922;-41
2022/02/16 00:21:20;;;;;;;;;;;;;;;18.00;52.37;100333.09;2027631;29;19946;-41
2022/02/16 00:22:20;;;;;;;;;;;;;;;17.99;52.41;100337.69;2028366;29;19949;-41
2022/02/16 00:23:21;;;;;;;;;;;;;;;17.99;52.54;100337.69;2029068;29;19937;-42
2022/02/16 00:24:21;;;;;;;;;;;;;;;18.00;52.30;100339.41;2027026;29;19961;-41
2022/02/16 00:25:22;;;;;;;;;;;;;;;17.99;52.60;100337.69;2027966;29;19965;-41
2022/02/16 00:26:22;;;;;;;;;;;;;;;17.99;52.45;100343.13;2027351;29;19978;-41
2022/02/16 00:27:22;;;;;;;;;;;;;;;17.98;52.45;100338.69;2024555;29;19918;-41
2022/02/16 00:28:23;;;;;;;;;;;;;;;17.98;52.29;100341.44;2028875;29;20312;-41
2022/02/16 00:29:23;;;;;;;;;;;;;;;17.98;52.50;100333.25;2025507;29;19939;-42
2022/02/16 00:30:23;;;;;;;;;;;;;;;18.00;52.53;100338.53;2027494;29;19953;-41
2022/02/16 00:31:24;;;;;;;;;;;;;;;18.00;52.29;100338.53;2025732;29;19967;-41
2022/02/16 00:32:24;;;;;;;;;;;;;;;18.00;52.40;100338.53;2026787;29;19919;-41
2022/02/16 00:33:25;;;;;;;;;;;;;;;17.99;52.57;100328.66;2023314;29;20085;-39
2022/02/16 00:34:25;;;;;;;;;;;;;;;17.95;52.33;100330.75;2030238;29;20305;-39
2022/02/16 00:35:25;;;;;;;;;;;;;;;17.89;52.19;100323.16;2026516;29;19927;-39
2022/02/16 00:36:26;;;;;;;;;;;;;;;17.86;52.38;100331.59;2029794;29;19953;-39
2022/02/16 00:37:26;;;;;;;;;;;;;;;17.83;52.31;100326.41;2028333;29;20627;-39
2022/02/16 00:38:27;;;;;;;;;;;;;;;17.79;52.25;100319.47;2026870;29;19925;-39
2022/02/16 00:39:27;;;;;;;;;;;;;;;17.77;52.38;100321.47;2023328;29;20108;-39
2022/02/16 00:40:27;;;;;;;;;;;;;;;17.75;52.61;100323.47;2027818;29;20495;-39
2022/02/16 00:41:28;;;;;;;;;;;;;;;17.72;52.59;100323.75;2028369;29;20314;-39
2022/02/16 00:42:28;;;;;;;;;;;;;;;17.69;52.53;100313.13;2027274;29;19986;-39
2022/02/16 00:43:29;;;;;;;;;;;;;;;17.68;52.69;100311.38;2027982;29;20025;-38
2022/02/16 00:44:29;;;;;;;;;;;;;;;17.67;52.81;100309.66;2028445;29;20442;-39
2022/02/16 00:45:32;;;;;;;;;;;;;;;17.66;52.64;100313.38;2027013;29;20399;-39
2022/02/16 00:46:33;;;;;;;;;;;;;;;17.62;52.75;100301.88;2029003;29;19976;-39
2022/02/16 00:47:33;;;;;;;;;;;;;;;17.62;52.88;100306.47;2027267;29;19915;-39
2022/02/16 00:48:33;;;;;;;;;;;;;;;17.60;53.13;100309.34;2029184;29;19958;-39
2022/02/16 00:49:34;;;;;;;;;;;;;;;17.57;53.03;100299.56;2030337;29;19915;-39
2022/02/16 00:50:35;;;;;;;;;;;;;;;17.57;52.94;100310.47;2023554;29;19947;-39
2022/02/16 00:51:35;;;;;;;;;;;;;;;17.56;53.14;100303.31;2011829;29;20291;-39
2022/02/16 00:52:35;;;;;;;;;;;;;;;17.56;53.16;100302.41;2021724;29;19923;-39
2022/02/16 00:53:36;;;;;;;;;;;;;;;17.55;53.03;100304.28;2028534;29;20311;-40
2022/02/16 00:54:37;;;;;;;;;;;;;;;17.54;53.07;100310.75;2029336;29;20356;-39
2022/02/16 00:55:38;;;;;;;;;;;;;;;17.53;53.07;100303.53;2024854;29;19918;-39
2022/02/16 00:56:40;;;;;;;;;;;;;;;17.53;53.04;100302.69;2030092;29;19977;-39
2022/02/16 00:57:40;;;;;;;;;;;;;;;17.51;53.20;100304.69;2023514;29;19954;-39
2022/02/16 00:58:41;;;;;;;;;;;;;;;17.50;53.08;100301.09;2019848;29;19922;-39
2022/02/16 00:59:41;;;;;;;;;;;;;;;17.50;53.14;100303.81;2028322;29;20756;-39
2022/02/16 01:00:42;;;;;;;;;;;;;;;17.50;53.19;100301.09;2027204;29;19910;-39
2022/02/16 01:01:42;;;;;;;;;;;;;;;17.50;53.32;100289.34;2028947;29;20400;-39
2022/02/16 01:02:42;;;;;;;;;;;;;;;17.49;53.15;100293.94;2038306;28;19926;-39
2022/02/16 01:03:43;;;;;;;;;;;;;;;17.49;53.25;100293.94;2035824;28;20917;-39
2022/02/16 01:04:43;;;;;;;;;;;;;;;17.48;53.26;100292.19;2036288;29;20136;-39
2022/02/16 01:05:45;;;;;;;;;;;;;;;17.48;53.13;100292.19;2040862;28;20133;-39
2022/02/16 01:06:45;;;;;;;;;;;;;;;17.49;53.04;100290.31;2035436;28;20017;-39
2022/02/16 01:07:45;;;;;;;;;;;;;;;17.49;53.28;100290.31;2036615;28;20254;-39
2022/02/16 01:08:46;;;;;;;;;;;;;;;17.48;53.47;100288.59;2036583;28;19926;-40
2022/02/16 01:09:46;;;;;;;;;;;;;;;17.47;53.38;100295.91;2037071;29;19985;-39
2022/02/16 01:10:46;;;;;;;;;;;;;;;17.47;53.32;100287.75;2034616;28;19929;-39
2022/02/16 01:11:46;;;;;;;;;;;;;;;17.47;53.31;100293.19;2037354;28;19914;-39
2022/02/16 01:12:47;;;;;;;;;;;;;;;17.49;53.03;100291.22;2035575;28;19922;-39
2022/02/16 01:13:47;;;;;;;;;;;;;;;17.46;53.10;100291.44;2040100;28;20336;-39
2022/02/16 01:14:48;;;;;;;;;;;;;;;17.47;53.35;100290.47;2034458;28;19922;-39
2022/02/16 01:15:48;;;;;;;;;;;;;;;17.48;53.32;100294.06;2035447;29;19922;-39
2022/02/16 01:16:48;;;;;;;;;;;;;;;17.48;53.14;100294.91;2035710;28;19922;-41
2022/02/16 01:17:49;;;;;;;;;;;;;;;17.48;53.15;100294.06;2036322;28;20429;-39
2022/02/16 01:18:50;;;;;;;;;;;;;;;17.49;53.31;100287.59;2039641;28;19918;-39
2022/02/16 01:19:50;;;;;;;;;;;;;;;17.49;53.22;100291.22;2036953;28;19922;-39
2022/02/16 01:20:51;;;;;;;;;;;;;;;17.49;53.13;100288.47;2035448;28;20377;-40
2022/02/16 01:21:52;;;;;;;;;;;;;;;17.49;53.11;100285.75;2037525;28;20024;-39
2022/02/16 01:22:53;;;;;;;;;;;;;;;17.50;53.07;100281.16;2036294;28;19968;-39
2022/02/16 01:23:53;;;;;;;;;;;;;;;17.51;53.16;100294.63;2038529;28;20347;-39
2022/02/16 01:24:53;;;;;;;;;;;;;;;17.50;53.14;100282.03;2041190;28;20324;-39
2022/02/16 01:25:54;;;;;;;;;;;;;;;17.49;52.97;100280.31;2037522;28;19932;-39
2022/02/16 01:26:55;;;;;;;;;;;;;;;17.50;53.27;100281.16;2041579;28;20320;-40
2022/02/16 01:27:55;;;;;;;;;;;;;;;17.50;53.04;100281.16;2035192;28;20472;-39
2022/02/16 01:28:56;;;;;;;;;;;;;;;17.51;53.14;100288.31;2043875;28;20328;-39
2022/02/16 01:29:56;;;;;;;;;;;;;;;17.50;53.08;100282.03;2040460;28;20365;-44
2022/02/16 01:30:56;;;;;;;;;;;;;;;17.48;53.21;100278.56;2035606;28;19922;-40
2022/02/16 01:31:56;;;;;;;;;;;;;;;17.48;53.31;100278.56;2034858;28;19910;-39
2022/02/16 01:32:57;;;;;;;;;;;;;;;17.48;52.97;100277.69;2035479;28;20369;-39
2022/02/16 01:33:57;;;;;;;;;;;;;;;17.48;53.20;100283.16;2036572;28;19922;-45
2022/02/16 01:34:57;;;;;;;;;;;;;;;17.47;53.09;100276.00;2037594;28;19923;-39
2022/02/16 01:35:58;;;;;;;;;;;;;;;17.47;53.21;100281.44;2037314;28;19923;-39
2022/02/16 01:36:58;;;;;;;;;;;;;;;17.47;53.15;100282.28;2036598;28;19941;-39
2022/02/16 01:37:58;;;;;;;;;;;;;;;17.46;53.24;100286.00;2035348;28;20013;-39
2022/02/16 01:38:58;;;;;;;;;;;;;;;17.44;53.24;100282.56;2037259;28;20165;-39
2022/02/16 01:39:59;;;;;;;;;;;;;;;17.45;53.31;100286.16;2037208;28;19926;-39
2022/02/16 01:40:59;;;;;;;;;;;;;;;17.44;53.17;100281.69;2036681;28;19949;-39
2022/02/16 01:42:00;;;;;;;;;;;;;;;17.44;53.51;100282.56;2035409;28;19946;-39
2022/02/16 01:43:01;;;;;;;;;;;;;;;17.42;53.52;100278.22;2035104;28;20351;-39
2022/02/16 01:44:02;;;;;;;;;;;;;;;17.43;53.44;100285.44;2034182;28;19915;-39
2022/02/16 01:45:03;;;;;;;;;;;;;;;17.41;53.61;100279.25;2037834;28;20005;-39
2022/02/16 01:46:03;;;;;;;;;;;;;;;17.41;53.52;100280.09;2035993;29;20427;-39
2022/02/16 01:47:04;;;;;;;;;;;;;;;17.41;53.36;100277.38;2036087;28;20133;-39
2022/02/16 01:48:05;;;;;;;;;;;;;;;17.40;53.28;100283.84;2034687;28;19922;-39
2022/02/16 01:49:05;;;;;;;;;;;;;;;17.40;53.36;100275.66;2037340;28;20788;-39
2022/02/16 01:50:06;;;;;;;;;;;;;;;17.41;53.54;100282.81;2039504;28;19985;-39
2022/02/16 01:51:07;;;;;;;;;;;;;;;17.40;53.38;100275.66;2035599;28;19925;-39
2022/02/16 01:52:08;;;;;;;;;;;;;;;17.40;53.45;100269.34;2038045;28;19926;-39
2022/02/16 01:53:08;;;;;;;;;;;;;;;17.39;53.45;100268.47;2035645;28;20301;-39
2022/02/16 01:54:09;;;;;;;;;;;;;;;17.39;53.46;100267.59;2036451;28;19925;-39
2022/02/16 01:55:10;;;;;;;;;;;;;;;17.38;53.50;100261.28;2035997;28;19933;-39
2022/02/16 01:56:11;;;;;;;;;;;;;;;17.38;53.34;100264.03;2036854;28;20352;-39
2022/02/16 01:57:12;;;;;;;;;;;;;;;17.38;53.30;100266.75;2037154;28;19918;-39
2022/02/16 01:58:14;;;;;;;;;;;;;;;17.38;53.49;100269.47;2036136;29;19954;-39
2022/02/16 01:59:21;;;;;;;;;;;;;;;17.38;53.47;100260.44;2034643;28;19925;-39
2022/02/16 02:00:22;;;;;;;;;;;;;;;17.37;53.42;100262.31;2042658;28;19922;-39
2022/02/16 02:01:23;;;;;;;;;;;;;;;17.36;53.54;100258.69;2043670;28;19942;-39
2022/02/16 02:02:24;;;;;;;;;;;;;;;17.35;53.49;100256.97;2035125;28;19915;-38
2022/02/16 02:03:24;;;;;;;;;;;;;;;17.37;53.51;100256.84;2034497;28;20697;-39
2022/02/16 02:04:25;;;;;;;;;;;;;;;17.35;53.33;100259.72;2036314;28;19922;-39
2022/02/16 02:05:25;;;;;;;;;;;;;;;17.35;53.51;100251.53;2035043;28;20192;-39
2022/02/16 02:06:25;;;;;;;;;;;;;;;17.34;53.34;100251.66;2035660;28;20553;-39
2022/02/16 02:07:26;;;;;;;;;;;;;;;17.34;53.59;100248.94;2035405;28;20245;-39
2022/02/16 02:08:26;;;;;;;;;;;;;;;17.33;53.34;100248.06;2033471;28;19923;-39
2022/02/16 02:09:26;;;;;;;;;;;;;;;17.33;53.50;100247.22;2035495;29;19950;-39
2022/02/16 02:10:27;;;;;;;;;;;;;;;17.31;53.54;100249.22;2032718;28;19953;-39
2022/02/16 02:11:27;;;;;;;;;;;;;;;17.32;53.46;100245.47;2036417;28;20146;-39
2022/02/16 02:12:27;;;;;;;;;;;;;;;17.30;53.72;100237.44;2033619;28;20367;-39
2022/02/16 02:13:28;;;;;;;;;;;;;;;17.30;53.57;100250.22;2035946;28;19930;-39
2022/02/16 02:14:28;;;;;;;;;;;;;;;17.31;53.47;100243.75;2034549;28;20826;-39
2022/02/16 02:15:28;;;;;;;;;;;;;;;17.29;53.74;100241.16;2034249;28;20245;-39
2022/02/16 02:16:29;;;;;;;;;;;;;;;17.30;53.74;100242.03;2034638;28;20179;-39
2022/02/16 02:17:29;;;;;;;;;;;;;;;17.29;53.49;100245.75;2035339;28;20186;-39
2022/02/16 02:18:29;;;;;;;;;;;;;;;17.28;53.71;100238.59;2034735;28;19926;-39
2022/02/16 02:19:30;;;;;;;;;;;;;;;17.28;53.71;100247.63;2036294;28;20364;-39
2022/02/16 02:20:30;;;;;;;;;;;;;;;17.28;53.68;100239.44;2033677;28;19922;-39
2022/02/16 02:21:31;;;;;;;;;;;;;;;17.28;53.60;100238.59;2035569;28;19923;-39
2022/02/16 02:22:31;;;;;;;;;;;;;;;17.28;53.62;100238.59;2035360;28;19922;-40
2022/02/16 02:23:31;;;;;;;;;;;;;;;17.27;53.78;100242.28;2033667;28;19922;-39
2022/02/16 02:24:32;;;;;;;;;;;;;;;17.27;53.90;100234.13;2034909;28;20107;-39
2022/02/16 02:25:45;;;;;;;;;;;;;;;17.27;53.73;100228.66;2034381;28;19923;-39
2022/02/16 02:26:45;;;;;;;;;;;;;;;17.27;53.58;100231.41;2034069;28;19941;-39
2022/02/16 02:27:46;;;;;;;;;;;;;;;17.26;53.66;100229.69;2034503;28;19974;-39
2022/02/16 02:28:46;;;;;;;;;;;;;;;17.27;53.73;100231.41;2036118;29;20180;-39
2022/02/16 02:29:46;;;;;;;;;;;;;;;17.26;53.83;100224.22;2036663;28;19922;-40
2022/02/16 02:30:47;;;;;;;;;;;;;;;17.26;53.64;100226.97;2035956;28;19922;-39
2022/02/16 02:31:47;;;;;;;;;;;;;;;17.27;53.61;100225.94;2033224;28;19922;-39
2022/02/16 02:32:48;;;;;;;;;;;;;;;17.26;53.78;100227.81;2035145;28;19922;-39
2022/02/16 02:33:48;;;;;;;;;;;;;;;17.27;53.70;100231.41;2035785;28;19927;-39
2022/02/16 02:34:50;;;;;;;;;;;;;;;17.26;53.66;100221.50;2034558;28;19914;-39
2022/02/16 02:35:50;;;;;;;;;;;;;;;17.25;53.82;100217.94;2035564;28;20017;-39
2022/02/16 02:36:50;;;;;;;;;;;;;;;17.26;53.75;100226.97;2034417;28;19914;-39
2022/02/16 02:37:50;;;;;;;;;;;;;;;17.26;53.97;100224.22;2034503;28;20281;-41
2022/02/16 02:38:51;;;;;;;;;;;;;;;17.26;53.78;100224.22;2035839;28;19919;-39
2022/02/16 02:39:51;;;;;;;;;;;;;;;17.25;53.87;100223.38;2035060;28;19922;-39
2022/02/16 02:40:58;;;;;;;;;;;;;;;17.25;53.55;100222.53;2034211;28;19914;-39
2022/02/16 02:41:59;;;;;;;;;;;;;;;17.25;53.76;100219.78;2034772;28;19919;-39
2022/02/16 02:42:59;;;;;;;;;;;;;;;17.25;53.67;100219.78;2032368;28;20017;-40
2022/02/16 02:43:59;;;;;;;;;;;;;;;17.25;54.04;100222.53;2036893;28;19965;-39
2022/02/16 02:45:02;;;;;;;;;;;;;;;17.23;53.84;100214.47;2031218;28;19923;-39
2022/02/16 02:46:02;;;;;;;;;;;;;;;17.23;53.80;100214.47;2035937;28;19918;-39
2022/02/16 02:47:02;;;;;;;;;;;;;;;17.24;53.88;100215.31;2035380;28;19969;-39
2022/02/16 02:48:03;;;;;;;;;;;;;;;17.23;53.98;100210.88;2035505;28;19930;-39
2022/02/16 02:49:03;;;;;;;;;;;;;;;17.23;54.07;100208.16;2036643;28;19926;-39
2022/02/16 02:50:04;;;;;;;;;;;;;;;17.22;53.78;100200.97;2036137;28;20432;-39
2022/02/16 02:51:04;;;;;;;;;;;;;;;17.21;53.74;100205.56;2042445;28;19948;-39
2022/02/16 02:52:05;;;;;;;;;;;;;;;17.21;54.10;100210.16;2041007;28;19922;-39
2022/02/16 02:53:05;;;;;;;;;;;;;;;17.20;53.94;100200.25;2036540;28;19921;-39
2022/02/16 02:54:05;;;;;;;;;;;;;;;17.20;53.99;100202.97;2037164;28;20369;-39
2022/02/16 02:55:07;;;;;;;;;;;;;;;17.20;54.03;100212.03;2037945;28;20424;-39
2022/02/16 02:56:08;;;;;;;;;;;;;;;17.19;54.11;100202.09;2037504;28;19922;-39
2022/02/16 02:57:08;;;;;;;;;;;;;;;17.19;53.96;100195.81;2035641;28;19923;-39
2022/02/16 02:58:08;;;;;;;;;;;;;;;17.19;53.99;100206.69;2038192;29;20499;-39
2022/02/16 02:59:08;;;;;;;;;;;;;;;17.18;54.07;100210.44;2039099;28;19928;-39
2022/02/16 03:00:10;;;;;;;;;;;;;;;17.19;54.00;100203.97;2039069;28;19922;-39
2022/02/16 03:01:11;;;;;;;;;;;;;;;17.18;53.85;100210.44;2036204;28;20439;-39
2022/02/16 03:02:11;;;;;;;;;;;;;;;17.17;53.95;100198.66;2038647;28;19933;-39
2022/02/16 03:03:11;;;;;;;;;;;;;;;17.16;53.95;100202.38;2037376;28;20371;-39
2022/02/16 03:04:11;;;;;;;;;;;;;;;17.17;53.94;100201.38;2037688;28;20020;-39
2022/02/16 03:05:12;;;;;;;;;;;;;;;17.17;53.96;100197.78;2038383;28;19961;-39
2022/02/16 03:06:12;;;;;;;;;;;;;;;17.16;53.88;100196.06;2038017;28;19928;-39
2022/02/16 03:07:12;;;;;;;;;;;;;;;17.16;54.08;100202.38;2034445;28;19930;-39
2022/02/16 03:08:13;;;;;;;;;;;;;;;17.16;53.82;100196.06;2038016;28;20284;-39
2022/02/16 03:09:13;;;;;;;;;;;;;;;17.16;54.13;100196.94;2035096;28;20009;-37
2022/02/16 03:10:13;;;;;;;;;;;;;;;17.16;54.01;100198.81;2036544;28;20808;-39
2022/02/16 03:11:19;;;;;;;;;;;;;;;17.16;53.88;100202.38;2037565;28;19923;-39
2022/02/16 03:12:19;;;;;;;;;;;;;;;17.16;53.91;100196.06;2036916;28;19922;-39
2022/02/16 03:13:20;;;;;;;;;;;;;;;17.17;54.09;100197.78;2036936;28;19922;-39
2022/02/16 03:14:20;;;;;;;;;;;;;;;17.14;53.88;100194.34;2037007;28;20504;-40
2022/02/16 03:15:20;;;;;;;;;;;;;;;17.16;54.01;100196.06;2038416;28;19915;-39
2022/02/16 03:16:21;;;;;;;;;;;;;;;17.16;54.06;100193.34;2036232;28;19957;-39
2022/02/16 03:17:21;;;;;;;;;;;;;;;17.16;54.26;100193.34;2037348;28;19922;-40
2022/02/16 03:18:21;;;;;;;;;;;;;;;17.14;54.10;100188.88;2036984;28;19922;-41
2022/02/16 03:19:22;;;;;;;;;;;;;;;17.14;54.06;100190.75;2035903;28;19914;-39
2022/02/16 03:20:22;;;;;;;;;;;;;;;17.14;54.11;100188.03;2041136;28;19914;-39
2022/02/16 03:21:23;;;;;;;;;;;;;;;17.15;54.15;100189.78;2040276;28;19918;-40
2022/02/16 03:22:23;;;;;;;;;;;;;;;17.14;54.08;100191.59;2036419;28;19922;-39
2022/02/16 03:23:24;;;;;;;;;;;;;;;17.14;53.98;100188.88;2036958;28;19923;-39
2022/02/16 03:24:24;;;;;;;;;;;;;;;17.14;54.12;100188.03;2036568;28;19985;-39
2022/02/16 03:25:25;;;;;;;;;;;;;;;17.12;54.12;100180.00;2039022;28;19922;-39
2022/02/16 03:26:25;;;;;;;;;;;;;;;17.12;54.00;100190.91;2035210;28;19933;-40
2022/02/16 03:27:25;;;;;;;;;;;;;;;17.12;54.20;100174.56;2038923;28;19989;-40
2022/02/16 03:28:26;;;;;;;;;;;;;;;17.12;54.13;100169.13;2035787;28;19922;-39
2022/02/16 03:29:26;;;;;;;;;;;;;;;17.12;54.06;100179.13;2037780;28;19929;-39
2022/02/16 03:30:26;;;;;;;;;;;;;;;17.12;54.13;100173.69;2037386;29;19953;-42
2022/02/16 03:31:27;;;;;;;;;;;;;;;17.10;54.15;100168.38;2036883;28;19919;-39
2022/02/16 03:32:27;;;;;;;;;;;;;;;17.11;54.24;100174.69;2038244;28;20346;-39
2022/02/16 03:33:28;;;;;;;;;;;;;;;17.10;54.18;100172.97;2043429;28;19922;-39
2022/02/16 03:34:28;;;;;;;;;;;;;;;17.10;54.26;100176.56;2049486;28;19962;-39
2022/02/16 03:35:28;;;;;;;;;;;;;;;17.08;54.15;100175.81;2036935;28;19922;-39
2022/02/16 03:36:29;;;;;;;;;;;;;;;17.10;53.96;100175.69;2035476;28;19985;-39
2022/02/16 03:37:29;;;;;;;;;;;;;;;17.09;54.18;100169.38;2034744;28;20341;-39
2022/02/16 03:38:29;;;;;;;;;;;;;;;17.08;54.30;100175.81;2039779;28;19954;-39
2022/02/16 03:39:30;;;;;;;;;;;;;;;17.07;54.20;100168.63;2037384;28;19927;-39
2022/02/16 03:40:30;;;;;;;;;;;;;;;17.08;54.20;100170.38;2036755;28;20505;-39
2022/02/16 03:41:31;;;;;;;;;;;;;;;17.07;54.30;100165.91;2039469;28;20909;-39
2022/02/16 03:42:31;;;;;;;;;;;;;;;17.07;54.39;100170.50;2035981;28;20017;-39
2022/02/16 03:43:31;;;;;;;;;;;;;;;17.07;54.33;100162.31;2041708;28;19930;-39
2022/02/16 03:44:32;;;;;;;;;;;;;;;17.08;54.25;100173.09;2036364;28;20134;-39
2022/02/16 03:45:32;;;;;;;;;;;;;;;17.07;54.09;100165.91;2038158;28;19927;-39
2022/02/16 03:46:33;;;;;;;;;;;;;;;17.07;54.28;100162.31;2037314;28;19919;-39
2022/02/16 03:47:33;;;;;;;;;;;;;;;17.07;54.27;100168.63;2036173;28;19930;-39
2022/02/16 03:48:33;;;;;;;;;;;;;;;17.07;54.20;100165.91;2039376;28;19923;-39
2022/02/16 03:49:34;;;;;;;;;;;;;;;17.07;54.14;100163.19;2036673;28;20372;-39
2022/02/16 03:50:34;;;;;;;;;;;;;;;17.07;54.25;100165.91;2036329;28;20353;-39
2022/02/16 03:51:34;;;;;;;;;;;;;;;17.07;54.11;100160.47;2032808;28;19918;-39
2022/02/16 03:52:35;;;;;;;;;;;;;;;17.07;54.21;100163.19;2036691;28;19910;-39
2022/02/16 03:53:35;;;;;;;;;;;;;;;17.07;54.28;100162.31;2036774;28;20359;-39
2022/02/16 03:54:35;;;;;;;;;;;;;;;17.07;54.22;100155.00;2039735;28;19918;-39
2022/02/16 03:55:36;;;;;;;;;;;;;;;17.07;54.46;100159.59;2037953;28;19919;-39
2022/02/16 03:56:36;;;;;;;;;;;;;;;17.06;54.14;100160.63;2037307;28;19919;-39
2022/02/16 03:57:36;;;;;;;;;;;;;;;17.05;54.35;100156.16;2038205;28;19922;-39
2022/02/16 03:58:37;;;;;;;;;;;;;;;17.06;54.20;100163.34;2034734;28;19950;-39
2022/02/16 03:59:37;;;;;;;;;;;;;;;17.05;54.21;100167.94;2036450;28;19915;-39
2022/02/16 04:00:37;;;;;;;;;;;;;;;17.04;54.25;100166.19;2037451;28;19925;-39
2022/02/16 04:01:38;;;;;;;;;;;;;;;17.05;54.45;100167.94;2036171;28;20464;-39
2022/02/16 04:02:38;;;;;;;;;;;;;;;17.05;54.21;100167.94;2036321;28;19969;-39
2022/02/16 04:03:39;;;;;;;;;;;;;;;17.05;54.30;100167.94;2038639;28;19922;-39
2022/02/16 04:04:39;;;;;;;;;;;;;;;17.04;54.25;100166.19;2039963;28;19937;-39
2022/02/16 04:05:42;;;;;;;;;;;;;;;17.05;54.23;100170.66;2039798;28;19923;-40
2022/02/16 04:06:43;;;;;;;;;;;;;;;17.05;54.33;100167.03;2036663;28;19922;-39
2022/02/16 04:07:43;;;;;;;;;;;;;;;17.04;54.30;100168.91;2037575;28;19923;-39
2022/02/16 04:08:44;;;;;;;;;;;;;;;17.05;54.29;100167.03;2036253;28;20719;-39
2022/02/16 04:09:44;;;;;;;;;;;;;;;17.04;54.17;100170.78;2036333;28;19918;-39
2022/02/16 04:10:44;;;;;;;;;;;;;;;17.03;54.33;100167.19;2037527;28;20243;-39
2022/02/16 04:11:45;;;;;;;;;;;;;;;17.02;54.38;100168.19;2039037;28;20206;-39
2022/02/16 04:12:45;;;;;;;;;;;;;;;17.02;54.33;100157.28;2036870;28;20334;-39
2022/02/16 04:13:46;;;;;;;;;;;;;;;17.03;54.37;100158.16;2040032;28;19953;-39
2022/02/16 04:14:46;;;;;;;;;;;;;;;17.01;54.28;100155.56;2036488;28;19922;-39
2022/02/16 04:15:47;;;;;;;;;;;;;;;17.01;54.34;100150.13;2037947;28;20307;-39
2022/02/16 04:16:47;;;;;;;;;;;;;;;17.01;54.45;100150.13;2039747;28;20142;-39
2022/02/16 04:17:47;;;;;;;;;;;;;;;17.01;54.61;100152.84;2036230;28;20299;-39
2022/02/16 04:18:48;;;;;;;;;;;;;;;16.99;54.27;100152.13;2040352;28;19922;-39
2022/02/16 04:19:48;;;;;;;;;;;;;;;17.00;54.46;100147.53;2037292;28;19929;-39
2022/02/16 04:20:48;;;;;;;;;;;;;;;17.00;54.53;100151.13;2036838;28;20368;-39
2022/02/16 04:21:48;;;;;;;;;;;;;;;16.99;54.61;100149.41;2039516;28;19978;-39
2022/02/16 04:22:50;;;;;;;;;;;;;;;16.99;54.18;100146.66;2036900;28;20238;-39
2022/02/16 04:23:50;;;;;;;;;;;;;;;16.99;54.37;100148.53;2036619;28;20367;-39
2022/02/16 04:24:50;;;;;;;;;;;;;;;16.99;54.33;100149.41;2037756;28;19922;-40
2022/02/16 04:25:51;;;;;;;;;;;;;;;16.99;54.32;100149.41;2041461;28;19929;-39
2022/02/16 04:26:51;;;;;;;;;;;;;;;16.98;54.50;100146.78;2035952;28;20165;-39
2022/02/16 04:27:51;;;;;;;;;;;;;;;16.98;54.39;100146.78;2036674;28;19922;-39
2022/02/16 04:28:52;;;;;;;;;;;;;;;16.98;54.62;100150.41;2044031;28;19922;-39
2022/02/16 04:29:52;;;;;;;;;;;;;;;16.97;54.13;100145.06;2044017;28;19922;-39
2022/02/16 04:30:52;;;;;;;;;;;;;;;16.97;54.50;100143.22;2037392;28;20239;-39
2022/02/16 04:31:53;;;;;;;;;;;;;;;16.98;54.61;100144.97;2037622;28;19930;-39
2022/02/16 04:32:53;;;;;;;;;;;;;;;16.98;54.42;100146.78;2045437;28;19929;-39
2022/02/16 04:33:53;;;;;;;;;;;;;;;16.97;54.31;100142.34;2043349;28;19926;-39
2022/02/16 04:34:53;;;;;;;;;;;;;;;16.99;54.29;100149.41;2043879;28;19922;-39
2022/02/16 04:35:54;;;;;;;;;;;;;;;16.99;54.27;100154.84;2038479;28;19930;-39
2022/02/16 04:36:54;;;;;;;;;;;;;;;17.00;54.41;100152.97;2038466;28;19929;-39
2022/02/16 04:37:55;;;;;;;;;;;;;;;17.00;54.26;100159.31;2038884;28;19929;-39
2022/02/16 04:38:56;;;;;;;;;;;;;;;17.00;54.33;100156.59;2032503;28;19922;-39
2022/02/16 04:39:57;;;;;;;;;;;;;;;17.01;54.24;100155.56;2036494;28;20525;-39
2022/02/16 04:40:57;;;;;;;;;;;;;;;17.02;54.17;100157.28;2037076;28;20010;-39
2022/02/16 04:41:58;;;;;;;;;;;;;;;17.02;54.17;100153.69;2038199;28;19972;-39
2022/02/16 04:42:59;;;;;;;;;;;;;;;17.01;54.11;100144.69;2040502;28;19918;-39
2022/02/16 04:43:59;;;;;;;;;;;;;;;17.03;54.22;100141.84;2031279;28;19930;-39
2022/02/16 04:44:59;;;;;;;;;;;;;;;17.03;54.21;100150.84;2040453;28;21113;-39
2022/02/16 04:46:00;;;;;;;;;;;;;;;17.03;54.17;100148.13;2037821;28;20280;-39
2022/02/16 04:47:00;;;;;;;;;;;;;;;17.03;54.11;100141.84;2035385;28;19922;-39
2022/02/16 04:48:01;;;;;;;;;;;;;;;17.04;54.22;100154.44;2035233;29;20883;-39
2022/02/16 04:49:01;;;;;;;;;;;;;;;17.03;54.05;100142.69;2033492;28;19922;-39
2022/02/16 04:50:03;;;;;;;;;;;;;;;17.03;54.25;100142.69;2035685;28;19927;-39
2022/02/16 04:51:03;;;;;;;;;;;;;;;17.03;54.06;100141.84;2037232;28;19934;-39
2022/02/16 04:52:04;;;;;;;;;;;;;;;17.02;54.20;100138.22;2035920;28;19933;-39
2022/02/16 04:53:04;;;;;;;;;;;;;;;17.02;54.19;100137.38;2034885;29;19934;-39
2022/02/16 04:54:04;;;;;;;;;;;;;;;17.02;54.25;100137.38;2035093;28;19914;-39
2022/02/16 04:55:06;;;;;;;;;;;;;;;17.01;53.92;100139.22;2036918;28;19953;-39
2022/02/16 04:56:06;;;;;;;;;;;;;;;17.02;54.17;100151.84;2036321;28;19989;-39
2022/02/16 04:57:07;;;;;;;;;;;;;;;17.00;54.22;100148.41;2037104;28;20268;-39
2022/02/16 04:58:07;;;;;;;;;;;;;;;17.02;54.12;100140.94;2039282;28;19930;-39
2022/02/16 04:59:07;;;;;;;;;;;;;;;17.01;54.09;100143.81;2034911;28;19914;-39
2022/02/16 05:00:08;;;;;;;;;;;;;;;17.00;54.24;100140.25;2035831;28;20344;-39
2022/02/16 05:01:08;;;;;;;;;;;;;;;16.99;54.12;100135.78;2043448;28;20338;-39
2022/02/16 05:02:09;;;;;;;;;;;;;;;17.00;54.14;100134.78;2043282;28;20537;-40
2022/02/16 05:03:09;;;;;;;;;;;;;;;17.00;54.16;100137.53;2036098;28;20014;-39
2022/02/16 05:04:09;;;;;;;;;;;;;;;17.00;54.10;100132.06;2032068;28;19911;-39
2022/02/16 05:05:10;;;;;;;;;;;;;;;17.00;54.16;100131.19;2037786;29;19918;-39
2022/02/16 05:06:11;;;;;;;;;;;;;;;16.98;54.30;100123.16;2034756;28;19919;-39
2022/02/16 05:07:11;;;;;;;;;;;;;;;17.00;54.17;100128.47;2035877;28;20063;-39
2022/02/16 05:08:12;;;;;;;;;;;;;;;16.97;54.12;100124.16;2033403;28;19907;-39
2022/02/16 05:09:12;;;;;;;;;;;;;;;16.97;54.13;100126.88;2037331;28;20248;-39
2022/02/16 05:10:12;;;;;;;;;;;;;;;16.98;54.29;100125.91;2038215;28;20021;-39